sensor_id;sensor_type;location;lat;lon;timestamp;P1;durP1;ratioP1;P2;durP2;ratioP2
5475;SDS011;2760;50.000;9.194;2023-04-03T00:00:44;5.57;;;4.20;;
5475;SDS011;2760;50.000;9.194;2023-04-03T00:03:11;5.90;;;4.00;;
5475;SDS011;2760;50.000;9.194;2023-04-03T00:05:38;4.80;;;4.40;;
5475;SDS011;2760;50.000;9.194;2023-04-03T00:08:05;5.83;;;3.73;;
5475;SDS011;2760;50.000;9.194;2023-04-03T00:10:36;6.67;;;4.00;;
5475;SDS011;2760;50.000;9.194;2023-04-03T00:13:03;4.10;;;3.70;;
5475;SDS011;2760;50.000;9.194;2023-04-03T00:15:31;4.13;;;3.80;;
5475;SDS011;2760;50.000;9.194;2023-04-03T00:17:58;4.67;;;4.03;;
5475;SDS011;2760;50.000;9.194;2023-04-03T00:20:25;4.57;;;3.70;;
5475;SDS011;2760;50.000;9.194;2023-04-03T00:22:52;5.80;;;3.30;;
5475;SDS011;2760;50.000;9.194;2023-04-03T00:25:19;3.83;;;3.37;;
5475;SDS011;2760;50.000;9.194;2023-04-03T00:27:48;5.70;;;4.00;;
5475;SDS011;2760;50.000;9.194;2023-04-03T00:30:16;5.73;;;3.90;;
5475;SDS011;2760;50.000;9.194;2023-04-03T00:32:45;5.10;;;3.70;;
5475;SDS011;2760;50.000;9.194;2023-04-03T00:35:13;3.40;;;3.20;;
5475;SDS011;2760;50.000;9.194;2023-04-03T00:37:41;4.33;;;3.40;;
5475;SDS011;2760;50.000;9.194;2023-04-03T00:40:08;5.47;;;3.77;;
5475;SDS011;2760;50.000;9.194;2023-04-03T00:42:36;8.53;;;4.30;;
5475;SDS011;2760;50.000;9.194;2023-04-03T00:45:25;4.00;;;3.67;;
5475;SDS011;2760;50.000;9.194;2023-04-03T00:47:55;4.70;;;4.20;;
5475;SDS011;2760;50.000;9.194;2023-04-03T00:50:24;4.17;;;3.60;;
5475;SDS011;2760;50.000;9.194;2023-04-03T00:52:53;8.60;;;3.67;;
5475;SDS011;2760;50.000;9.194;2023-04-03T00:55:21;3.87;;;3.57;;
5475;SDS011;2760;50.000;9.194;2023-04-03T00:57:49;4.90;;;3.67;;
5475;SDS011;2760;50.000;9.194;2023-04-03T01:00:18;4.37;;;4.03;;
5475;SDS011;2760;50.000;9.194;2023-04-03T01:02:49;4.17;;;3.70;;
5475;SDS011;2760;50.000;9.194;2023-04-03T01:05:17;5.83;;;5.20;;
5475;SDS011;2760;50.000;9.194;2023-04-03T01:07:45;7.43;;;5.73;;
5475;SDS011;2760;50.000;9.194;2023-04-03T01:10:14;7.70;;;4.30;;
5475;SDS011;2760;50.000;9.194;2023-04-03T01:12:45;4.30;;;3.90;;
5475;SDS011;2760;50.000;9.194;2023-04-03T01:15:14;6.63;;;4.73;;
5475;SDS011;2760;50.000;9.194;2023-04-03T01:17:44;5.00;;;4.37;;
5475;SDS011;2760;50.000;9.194;2023-04-03T01:23:13;7.30;;;4.27;;
5475;SDS011;2760;50.000;9.194;2023-04-03T01:25:51;8.80;;;4.90;;
5475;SDS011;2760;50.000;9.194;2023-04-03T01:28:21;6.93;;;4.73;;
5475;SDS011;2760;50.000;9.194;2023-04-03T01:30:51;6.33;;;5.67;;
5475;SDS011;2760;50.000;9.194;2023-04-03T01:33:24;6.07;;;4.80;;
5475;SDS011;2760;50.000;9.194;2023-04-03T01:35:52;6.23;;;4.80;;
5475;SDS011;2760;50.000;9.194;2023-04-03T01:38:19;7.60;;;5.13;;
5475;SDS011;2760;50.000;9.194;2023-04-03T01:40:46;12.80;;;4.80;;
5475;SDS011;2760;50.000;9.194;2023-04-03T01:43:14;8.80;;;5.13;;
5475;SDS011;2760;50.000;9.194;2023-04-03T01:45:41;7.87;;;5.10;;
5475;SDS011;2760;50.000;9.194;2023-04-03T01:48:10;5.60;;;5.10;;
5475;SDS011;2760;50.000;9.194;2023-04-03T01:50:38;5.17;;;4.67;;
5475;SDS011;2760;50.000;9.194;2023-04-03T01:53:05;6.07;;;4.57;;
5475;SDS011;2760;50.000;9.194;2023-04-03T01:55:32;5.20;;;4.70;;
5475;SDS011;2760;50.000;9.194;2023-04-03T01:58:00;7.70;;;4.60;;
5475;SDS011;2760;50.000;9.194;2023-04-03T02:00:27;5.60;;;3.93;;
5475;SDS011;2760;50.000;9.194;2023-04-03T02:02:54;6.97;;;5.83;;
5475;SDS011;2760;50.000;9.194;2023-04-03T02:05:24;11.50;;;7.37;;
5475;SDS011;2760;50.000;9.194;2023-04-03T02:07:53;7.60;;;6.00;;
5475;SDS011;2760;50.000;9.194;2023-04-03T02:10:20;9.30;;;6.50;;
5475;SDS011;2760;50.000;9.194;2023-04-03T02:12:47;6.23;;;4.53;;
5475;SDS011;2760;50.000;9.194;2023-04-03T02:15:14;4.90;;;4.50;;
5475;SDS011;2760;50.000;9.194;2023-04-03T02:17:42;6.63;;;4.93;;
5475;SDS011;2760;50.000;9.194;2023-04-03T02:20:09;8.17;;;5.27;;
5475;SDS011;2760;50.000;9.194;2023-04-03T02:22:37;5.50;;;4.90;;
5475;SDS011;2760;50.000;9.194;2023-04-03T02:25:05;6.43;;;5.27;;
5475;SDS011;2760;50.000;9.194;2023-04-03T02:27:33;6.50;;;5.90;;
5475;SDS011;2760;50.000;9.194;2023-04-03T02:30:00;5.93;;;4.87;;
5475;SDS011;2760;50.000;9.194;2023-04-03T02:32:28;13.30;;;9.00;;
5475;SDS011;2760;50.000;9.194;2023-04-03T02:34:55;5.70;;;5.20;;
5475;SDS011;2760;50.000;9.194;2023-04-03T02:37:22;7.13;;;5.50;;
5475;SDS011;2760;50.000;9.194;2023-04-03T02:39:51;7.77;;;5.77;;
5475;SDS011;2760;50.000;9.194;2023-04-03T02:42:20;6.67;;;5.50;;
5475;SDS011;2760;50.000;9.194;2023-04-03T02:44:47;5.50;;;5.00;;
5475;SDS011;2760;50.000;9.194;2023-04-03T02:47:14;6.10;;;5.50;;
5475;SDS011;2760;50.000;9.194;2023-04-03T02:49:41;6.47;;;5.37;;
5475;SDS011;2760;50.000;9.194;2023-04-03T02:52:10;6.33;;;5.60;;
5475;SDS011;2760;50.000;9.194;2023-04-03T02:54:38;7.13;;;6.00;;
5475;SDS011;2760;50.000;9.194;2023-04-03T02:57:08;6.43;;;5.23;;
5475;SDS011;2760;50.000;9.194;2023-04-03T02:59:37;6.33;;;4.90;;
5475;SDS011;2760;50.000;9.194;2023-04-03T03:02:06;6.10;;;5.47;;
5475;SDS011;2760;50.000;9.194;2023-04-03T03:04:33;6.63;;;5.93;;
5475;SDS011;2760;50.000;9.194;2023-04-03T03:07:00;7.03;;;5.20;;
5475;SDS011;2760;50.000;9.194;2023-04-03T03:09:27;5.77;;;5.27;;
5475;SDS011;2760;50.000;9.194;2023-04-03T03:11:55;5.63;;;5.13;;
5475;SDS011;2760;50.000;9.194;2023-04-03T03:14:22;5.40;;;4.73;;
5475;SDS011;2760;50.000;9.194;2023-04-03T03:16:51;7.70;;;6.00;;
5475;SDS011;2760;50.000;9.194;2023-04-03T03:19:18;8.47;;;5.17;;
5475;SDS011;2760;50.000;9.194;2023-04-03T03:21:45;6.43;;;5.17;;
5475;SDS011;2760;50.000;9.194;2023-04-03T03:24:12;5.70;;;5.20;;
5475;SDS011;2760;50.000;9.194;2023-04-03T03:26:41;5.13;;;4.73;;
5475;SDS011;2760;50.000;9.194;2023-04-03T03:29:08;7.43;;;5.73;;
5475;SDS011;2760;50.000;9.194;2023-04-03T03:31:36;9.40;;;5.60;;
5475;SDS011;2760;50.000;9.194;2023-04-03T03:34:04;8.50;;;6.80;;
5475;SDS011;2760;50.000;9.194;2023-04-03T03:36:31;7.27;;;6.50;;
5475;SDS011;2760;50.000;9.194;2023-04-03T03:38:59;8.43;;;5.57;;
5475;SDS011;2760;50.000;9.194;2023-04-03T03:41:26;6.47;;;5.57;;
5475;SDS011;2760;50.000;9.194;2023-04-03T03:43:54;8.07;;;5.90;;
5475;SDS011;2760;50.000;9.194;2023-04-03T03:46:21;10.70;;;6.57;;
5475;SDS011;2760;50.000;9.194;2023-04-03T03:48:49;7.00;;;5.57;;
5475;SDS011;2760;50.000;9.194;2023-04-03T03:51:17;8.77;;;5.93;;
5475;SDS011;2760;50.000;9.194;2023-04-03T03:53:45;8.90;;;6.33;;
5475;SDS011;2760;50.000;9.194;2023-04-03T03:56:16;13.13;;;6.53;;
5475;SDS011;2760;50.000;9.194;2023-04-03T03:58:45;16.03;;;8.10;;
5475;SDS011;2760;50.000;9.194;2023-04-03T04:01:12;12.13;;;6.80;;
5475;SDS011;2760;50.000;9.194;2023-04-03T04:03:45;6.93;;;6.20;;
5475;SDS011;2760;50.000;9.194;2023-04-03T04:06:18;10.23;;;5.43;;
5475;SDS011;2760;50.000;9.194;2023-04-03T04:08:45;14.70;;;6.00;;
5475;SDS011;2760;50.000;9.194;2023-04-03T04:11:13;6.33;;;4.37;;
5475;SDS011;2760;50.000;9.194;2023-04-03T04:13:42;4.20;;;3.80;;
5475;SDS011;2760;50.000;9.194;2023-04-03T04:16:11;6.30;;;3.23;;
5475;SDS011;2760;50.000;9.194;2023-04-03T04:18:38;4.93;;;3.30;;
5475;SDS011;2760;50.000;9.194;2023-04-03T04:21:05;3.80;;;2.87;;
5475;SDS011;2760;50.000;9.194;2023-04-03T04:23:34;4.47;;;3.70;;
5475;SDS011;2760;50.000;9.194;2023-04-03T04:26:01;3.20;;;2.70;;
5475;SDS011;2760;50.000;9.194;2023-04-03T04:28:32;3.03;;;2.70;;
5475;SDS011;2760;50.000;9.194;2023-04-03T04:31:01;4.20;;;2.87;;
5475;SDS011;2760;50.000;9.194;2023-04-03T04:33:28;3.60;;;3.07;;
5475;SDS011;2760;50.000;9.194;2023-04-03T04:35:59;3.10;;;2.30;;
5475;SDS011;2760;50.000;9.194;2023-04-03T04:38:26;13.63;;;6.80;;
5475;SDS011;2760;50.000;9.194;2023-04-03T04:40:57;4.60;;;2.70;;
5475;SDS011;2760;50.000;9.194;2023-04-03T04:43:25;9.10;;;2.60;;
5475;SDS011;2760;50.000;9.194;2023-04-03T04:46:00;4.10;;;2.90;;
5475;SDS011;2760;50.000;9.194;2023-04-03T04:48:30;6.20;;;2.60;;
5475;SDS011;2760;50.000;9.194;2023-04-03T04:50:57;3.90;;;2.90;;
5475;SDS011;2760;50.000;9.194;2023-04-03T04:53:24;3.47;;;2.60;;
5475;SDS011;2760;50.000;9.194;2023-04-03T04:55:51;6.33;;;2.60;;
5475;SDS011;2760;50.000;9.194;2023-04-03T04:58:21;2.67;;;2.47;;
5475;SDS011;2760;50.000;9.194;2023-04-03T05:00:49;5.57;;;3.70;;
5475;SDS011;2760;50.000;9.194;2023-04-03T05:03:16;3.33;;;3.03;;
5475;SDS011;2760;50.000;9.194;2023-04-03T05:05:43;6.60;;;3.20;;
5475;SDS011;2760;50.000;9.194;2023-04-03T05:08:10;4.87;;;3.07;;
5475;SDS011;2760;50.000;9.194;2023-04-03T05:10:39;7.80;;;3.00;;
5475;SDS011;2760;50.000;9.194;2023-04-03T05:13:09;3.30;;;2.87;;
5475;SDS011;2760;50.000;9.194;2023-04-03T05:15:38;3.80;;;2.83;;
5475;SDS011;2760;50.000;9.194;2023-04-03T05:18:06;4.53;;;3.00;;
5475;SDS011;2760;50.000;9.194;2023-04-03T05:20:34;4.13;;;2.60;;
5475;SDS011;2760;50.000;9.194;2023-04-03T05:23:02;7.50;;;4.40;;
5475;SDS011;2760;50.000;9.194;2023-04-03T05:25:31;8.20;;;4.23;;
5475;SDS011;2760;50.000;9.194;2023-04-03T05:27:58;8.23;;;3.10;;
5475;SDS011;2760;50.000;9.194;2023-04-03T05:30:26;5.00;;;3.77;;
5475;SDS011;2760;50.000;9.194;2023-04-03T05:32:54;9.07;;;3.20;;
5475;SDS011;2760;50.000;9.194;2023-04-03T05:35:31;3.60;;;3.30;;
5475;SDS011;2760;50.000;9.194;2023-04-03T05:38:02;4.53;;;2.87;;
5475;SDS011;2760;50.000;9.194;2023-04-03T05:40:31;5.77;;;3.43;;
5475;SDS011;2760;50.000;9.194;2023-04-03T05:42:58;9.53;;;3.10;;
5475;SDS011;2760;50.000;9.194;2023-04-03T05:45:28;3.43;;;2.40;;
5475;SDS011;2760;50.000;9.194;2023-04-03T05:47:58;3.70;;;2.70;;
5475;SDS011;2760;50.000;9.194;2023-04-03T05:50:25;5.90;;;3.40;;
5475;SDS011;2760;50.000;9.194;2023-04-03T05:52:53;3.80;;;2.40;;
5475;SDS011;2760;50.000;9.194;2023-04-03T05:55:26;2.70;;;2.50;;
5475;SDS011;2760;50.000;9.194;2023-04-03T05:57:53;3.20;;;2.67;;
5475;SDS011;2760;50.000;9.194;2023-04-03T06:00:20;4.50;;;2.90;;
5475;SDS011;2760;50.000;9.194;2023-04-03T06:02:59;3.00;;;2.70;;
5475;SDS011;2760;50.000;9.194;2023-04-03T06:05:26;3.47;;;2.63;;
5475;SDS011;2760;50.000;9.194;2023-04-03T06:07:53;3.70;;;2.83;;
5475;SDS011;2760;50.000;9.194;2023-04-03T06:10:20;5.07;;;2.70;;
5475;SDS011;2760;50.000;9.194;2023-04-03T06:12:48;4.63;;;2.80;;
5475;SDS011;2760;50.000;9.194;2023-04-03T06:15:16;2.90;;;2.60;;
5475;SDS011;2760;50.000;9.194;2023-04-03T06:17:43;6.37;;;2.63;;
5475;SDS011;2760;50.000;9.194;2023-04-03T06:20:12;4.10;;;3.03;;
5475;SDS011;2760;50.000;9.194;2023-04-03T06:22:39;6.83;;;3.30;;
5475;SDS011;2760;50.000;9.194;2023-04-03T06:25:07;7.00;;;3.37;;
5475;SDS011;2760;50.000;9.194;2023-04-03T06:27:36;9.70;;;2.83;;
5475;SDS011;2760;50.000;9.194;2023-04-03T06:30:03;12.53;;;3.50;;
5475;SDS011;2760;50.000;9.194;2023-04-03T06:32:31;3.63;;;2.70;;
5475;SDS011;2760;50.000;9.194;2023-04-03T06:34:58;3.60;;;2.67;;
5475;SDS011;2760;50.000;9.194;2023-04-03T06:37:27;3.97;;;3.27;;
5475;SDS011;2760;50.000;9.194;2023-04-03T06:39:55;7.77;;;2.70;;
5475;SDS011;2760;50.000;9.194;2023-04-03T06:42:22;6.83;;;3.43;;
5475;SDS011;2760;50.000;9.194;2023-04-03T06:44:59;6.60;;;3.37;;
5475;SDS011;2760;50.000;9.194;2023-04-03T06:47:28;4.90;;;3.13;;
5475;SDS011;2760;50.000;9.194;2023-04-03T06:49:55;3.97;;;2.60;;
5475;SDS011;2760;50.000;9.194;2023-04-03T06:52:22;4.27;;;2.93;;
5475;SDS011;2760;50.000;9.194;2023-04-03T06:54:51;5.90;;;2.80;;
5475;SDS011;2760;50.000;9.194;2023-04-03T06:57:22;6.80;;;2.77;;
5475;SDS011;2760;50.000;9.194;2023-04-03T06:59:49;3.13;;;2.73;;
5475;SDS011;2760;50.000;9.194;2023-04-03T07:02:16;6.03;;;2.53;;
5475;SDS011;2760;50.000;9.194;2023-04-03T07:04:43;4.33;;;2.60;;
5475;SDS011;2760;50.000;9.194;2023-04-03T07:07:11;2.90;;;2.47;;
5475;SDS011;2760;50.000;9.194;2023-04-03T07:09:38;4.90;;;2.50;;
5475;SDS011;2760;50.000;9.194;2023-04-03T07:12:06;8.80;;;2.80;;
5475;SDS011;2760;50.000;9.194;2023-04-03T07:14:34;7.50;;;3.30;;
5475;SDS011;2760;50.000;9.194;2023-04-03T07:17:01;2.53;;;2.33;;
5475;SDS011;2760;50.000;9.194;2023-04-03T07:19:28;5.43;;;2.40;;
5475;SDS011;2760;50.000;9.194;2023-04-03T07:21:55;5.00;;;2.20;;
5475;SDS011;2760;50.000;9.194;2023-04-03T07:24:22;2.97;;;2.53;;
5475;SDS011;2760;50.000;9.194;2023-04-03T07:26:49;3.23;;;2.50;;
5475;SDS011;2760;50.000;9.194;2023-04-03T07:29:19;5.53;;;3.07;;
5475;SDS011;2760;50.000;9.194;2023-04-03T07:31:47;2.27;;;2.07;;
5475;SDS011;2760;50.000;9.194;2023-04-03T07:34:14;1.53;;;1.43;;
5475;SDS011;2760;50.000;9.194;2023-04-03T07:36:41;2.33;;;2.13;;
5475;SDS011;2760;50.000;9.194;2023-04-03T07:39:08;2.43;;;1.90;;
5475;SDS011;2760;50.000;9.194;2023-04-03T07:41:36;4.40;;;2.33;;
5475;SDS011;2760;50.000;9.194;2023-04-03T07:44:03;5.07;;;2.47;;
5475;SDS011;2760;50.000;9.194;2023-04-03T07:46:32;3.57;;;2.70;;
5475;SDS011;2760;50.000;9.194;2023-04-03T07:48:59;6.23;;;2.73;;
5475;SDS011;2760;50.000;9.194;2023-04-03T07:51:26;3.97;;;2.73;;
5475;SDS011;2760;50.000;9.194;2023-04-03T07:53:55;7.47;;;2.70;;
5475;SDS011;2760;50.000;9.194;2023-04-03T07:56:22;6.90;;;2.37;;
5475;SDS011;2760;50.000;9.194;2023-04-03T07:58:50;4.73;;;2.37;;
5475;SDS011;2760;50.000;9.194;2023-04-03T08:01:17;2.10;;;1.90;;
5475;SDS011;2760;50.000;9.194;2023-04-03T08:03:45;6.83;;;1.97;;
5475;SDS011;2760;50.000;9.194;2023-04-03T08:06:12;1.93;;;1.80;;
5475;SDS011;2760;50.000;9.194;2023-04-03T08:08:40;5.10;;;2.50;;
5475;SDS011;2760;50.000;9.194;2023-04-03T08:11:07;4.47;;;2.53;;
5475;SDS011;2760;50.000;9.194;2023-04-03T08:13:36;2.80;;;2.13;;
5475;SDS011;2760;50.000;9.194;2023-04-03T08:16:09;4.47;;;3.60;;
5475;SDS011;2760;50.000;9.194;2023-04-03T08:18:37;4.63;;;3.30;;
5475;SDS011;2760;50.000;9.194;2023-04-03T08:21:07;3.57;;;1.97;;
5475;SDS011;2760;50.000;9.194;2023-04-03T08:23:35;8.20;;;3.83;;
5475;SDS011;2760;50.000;9.194;2023-04-03T08:26:06;6.33;;;1.83;;
5475;SDS011;2760;50.000;9.194;2023-04-03T08:28:37;4.70;;;2.20;;
5475;SDS011;2760;50.000;9.194;2023-04-03T08:31:06;4.07;;;2.30;;
5475;SDS011;2760;50.000;9.194;2023-04-03T08:33:36;3.30;;;1.60;;
5475;SDS011;2760;50.000;9.194;2023-04-03T08:36:03;4.30;;;2.27;;
5475;SDS011;2760;50.000;9.194;2023-04-03T08:38:33;4.73;;;2.40;;
5475;SDS011;2760;50.000;9.194;2023-04-03T08:41:04;7.87;;;3.73;;
5475;SDS011;2760;50.000;9.194;2023-04-03T08:43:42;5.80;;;4.00;;
5475;SDS011;2760;50.000;9.194;2023-04-03T08:46:23;3.17;;;2.17;;
5475;SDS011;2760;50.000;9.194;2023-04-03T08:49:02;5.23;;;2.70;;
5475;SDS011;2760;50.000;9.194;2023-04-03T08:51:35;1.63;;;1.53;;
5475;SDS011;2760;50.000;9.194;2023-04-03T08:54:15;2.83;;;2.30;;
5475;SDS011;2760;50.000;9.194;2023-04-03T08:56:50;2.73;;;2.40;;
5475;SDS011;2760;50.000;9.194;2023-04-03T08:59:19;3.90;;;1.80;;
5475;SDS011;2760;50.000;9.194;2023-04-03T09:01:54;3.90;;;1.67;;
5475;SDS011;2760;50.000;9.194;2023-04-03T09:04:21;3.33;;;1.90;;
5475;SDS011;2760;50.000;9.194;2023-04-03T09:06:49;3.50;;;2.00;;
5475;SDS011;2760;50.000;9.194;2023-04-03T09:09:27;5.33;;;1.67;;
5475;SDS011;2760;50.000;9.194;2023-04-03T09:12:00;2.10;;;1.90;;
5475;SDS011;2760;50.000;9.194;2023-04-03T09:14:38;5.43;;;2.00;;
5475;SDS011;2760;50.000;9.194;2023-04-03T09:17:11;2.40;;;1.80;;
5475;SDS011;2760;50.000;9.194;2023-04-03T09:19:45;3.30;;;2.07;;
5475;SDS011;2760;50.000;9.194;2023-04-03T09:22:17;1.90;;;1.50;;
5475;SDS011;2760;50.000;9.194;2023-04-03T09:24:50;1.73;;;1.40;;
5475;SDS011;2760;50.000;9.194;2023-04-03T09:27:23;3.00;;;1.90;;
5475;SDS011;2760;50.000;9.194;2023-04-03T09:29:52;3.33;;;2.33;;
5475;SDS011;2760;50.000;9.194;2023-04-03T09:32:22;3.37;;;2.00;;
5475;SDS011;2760;50.000;9.194;2023-04-03T09:34:55;4.20;;;1.93;;
5475;SDS011;2760;50.000;9.194;2023-04-03T09:37:38;7.17;;;2.17;;
5475;SDS011;2760;50.000;9.194;2023-04-03T09:45:47;2.00;;;1.53;;
5475;SDS011;2760;50.000;9.194;2023-04-03T09:48:16;2.27;;;2.03;;
5475;SDS011;2760;50.000;9.194;2023-04-03T09:51:01;4.70;;;3.00;;
5475;SDS011;2760;50.000;9.194;2023-04-03T09:53:32;2.20;;;1.50;;
5475;SDS011;2760;50.000;9.194;2023-04-03T09:56:05;3.03;;;1.63;;
5475;SDS011;2760;50.000;9.194;2023-04-03T09:58:47;1.40;;;1.30;;
5475;SDS011;2760;50.000;9.194;2023-04-03T10:01:28;4.13;;;2.00;;
5475;SDS011;2760;50.000;9.194;2023-04-03T10:04:09;2.23;;;2.03;;
5475;SDS011;2760;50.000;9.194;2023-04-03T10:06:39;4.33;;;1.87;;
5475;SDS011;2760;50.000;9.194;2023-04-03T10:09:15;4.27;;;2.00;;
5475;SDS011;2760;50.000;9.194;2023-04-03T10:14:34;5.47;;;2.13;;
5475;SDS011;2760;50.000;9.194;2023-04-03T10:17:09;3.33;;;2.07;;
5475;SDS011;2760;50.000;9.194;2023-04-03T10:19:45;4.50;;;2.40;;
5475;SDS011;2760;50.000;9.194;2023-04-03T10:22:19;3.17;;;2.30;;
5475;SDS011;2760;50.000;9.194;2023-04-03T10:24:54;3.60;;;1.73;;
5475;SDS011;2760;50.000;9.194;2023-04-03T10:27:33;3.70;;;3.07;;
5475;SDS011;2760;50.000;9.194;2023-04-03T10:30:12;4.90;;;2.53;;
5475;SDS011;2760;50.000;9.194;2023-04-03T10:32:58;3.40;;;2.70;;
5475;SDS011;2760;50.000;9.194;2023-04-03T10:35:42;2.23;;;2.03;;
5475;SDS011;2760;50.000;9.194;2023-04-03T10:38:15;2.70;;;2.03;;
5475;SDS011;2760;50.000;9.194;2023-04-03T10:40:52;2.57;;;2.37;;
5475;SDS011;2760;50.000;9.194;2023-04-03T10:43:27;2.13;;;1.87;;
5475;SDS011;2760;50.000;9.194;2023-04-03T10:46:00;7.00;;;2.30;;
5475;SDS011;2760;50.000;9.194;2023-04-03T10:48:33;5.67;;;2.37;;
5475;SDS011;2760;50.000;9.194;2023-04-03T10:51:20;3.27;;;2.10;;
5475;SDS011;2760;50.000;9.194;2023-04-03T10:53:53;3.30;;;1.80;;
5475;SDS011;2760;50.000;9.194;2023-04-03T10:56:26;4.70;;;2.17;;
5475;SDS011;2760;50.000;9.194;2023-04-03T10:59:05;2.80;;;2.10;;
5475;SDS011;2760;50.000;9.194;2023-04-03T11:01:43;3.83;;;1.87;;
5475;SDS011;2760;50.000;9.194;2023-04-03T11:04:11;2.87;;;1.67;;
5475;SDS011;2760;50.000;9.194;2023-04-03T11:06:43;2.30;;;1.77;;
5475;SDS011;2760;50.000;9.194;2023-04-03T11:09:16;2.43;;;2.00;;
5475;SDS011;2760;50.000;9.194;2023-04-03T11:11:51;2.47;;;2.00;;
5475;SDS011;2760;50.000;9.194;2023-04-03T11:14:24;2.53;;;1.80;;
5475;SDS011;2760;50.000;9.194;2023-04-03T11:16:58;2.10;;;1.90;;
5475;SDS011;2760;50.000;9.194;2023-04-03T11:19:33;2.60;;;2.30;;
5475;SDS011;2760;50.000;9.194;2023-04-03T11:22:05;4.33;;;2.50;;
5475;SDS011;2760;50.000;9.194;2023-04-03T11:24:38;3.17;;;1.80;;
5475;SDS011;2760;50.000;9.194;2023-04-03T11:27:08;3.50;;;2.03;;
5475;SDS011;2760;50.000;9.194;2023-04-03T11:29:45;2.53;;;2.20;;
5475;SDS011;2760;50.000;9.194;2023-04-03T11:32:23;3.93;;;2.60;;
5475;SDS011;2760;50.000;9.194;2023-04-03T11:35:00;2.80;;;2.00;;
5475;SDS011;2760;50.000;9.194;2023-04-03T11:37:30;2.60;;;2.40;;
5475;SDS011;2760;50.000;9.194;2023-04-03T11:40:02;1.20;;;1.10;;
5475;SDS011;2760;50.000;9.194;2023-04-03T11:42:34;3.30;;;2.10;;
5475;SDS011;2760;50.000;9.194;2023-04-03T11:45:22;3.47;;;2.90;;
5475;SDS011;2760;50.000;9.194;2023-04-03T11:47:54;3.20;;;2.00;;
5475;SDS011;2760;50.000;9.194;2023-04-03T11:50:43;2.87;;;1.73;;
5475;SDS011;2760;50.000;9.194;2023-04-03T11:56:27;3.93;;;1.90;;
5475;SDS011;2760;50.000;9.194;2023-04-03T11:59:16;3.47;;;2.20;;
5475;SDS011;2760;50.000;9.194;2023-04-03T12:01:51;3.30;;;2.83;;
5475;SDS011;2760;50.000;9.194;2023-04-03T12:04:19;2.40;;;1.70;;
5475;SDS011;2760;50.000;9.194;2023-04-03T12:12:42;2.20;;;1.97;;
5475;SDS011;2760;50.000;9.194;2023-04-03T12:15:24;2.33;;;2.13;;
5475;SDS011;2760;50.000;9.194;2023-04-03T12:21:18;3.20;;;1.97;;
5475;SDS011;2760;50.000;9.194;2023-04-03T12:26:50;2.57;;;1.73;;
5475;SDS011;2760;50.000;9.194;2023-04-03T12:29:29;1.60;;;1.50;;
5475;SDS011;2760;50.000;9.194;2023-04-03T12:32:06;1.93;;;1.73;;
5475;SDS011;2760;50.000;9.194;2023-04-03T12:34:46;4.10;;;2.30;;
5475;SDS011;2760;50.000;9.194;2023-04-03T12:37:43;4.97;;;1.80;;
5475;SDS011;2760;50.000;9.194;2023-04-03T12:40:25;1.70;;;1.43;;
5475;SDS011;2760;50.000;9.194;2023-04-03T12:43:18;3.43;;;1.87;;
5475;SDS011;2760;50.000;9.194;2023-04-03T12:46:02;3.67;;;2.33;;
5475;SDS011;2760;50.000;9.194;2023-04-03T12:48:37;1.50;;;1.40;;
5475;SDS011;2760;50.000;9.194;2023-04-03T12:51:13;3.33;;;2.07;;
5475;SDS011;2760;50.000;9.194;2023-04-03T12:53:43;4.10;;;1.83;;
5475;SDS011;2760;50.000;9.194;2023-04-03T12:56:24;2.30;;;1.90;;
5475;SDS011;2760;50.000;9.194;2023-04-03T12:58:53;10.17;;;3.53;;
5475;SDS011;2760;50.000;9.194;2023-04-03T13:01:23;7.93;;;2.90;;
5475;SDS011;2760;50.000;9.194;2023-04-03T13:03:52;7.40;;;2.37;;
5475;SDS011;2760;50.000;9.194;2023-04-03T13:06:21;2.37;;;2.17;;
5475;SDS011;2760;50.000;9.194;2023-04-03T13:08:52;3.20;;;1.90;;
5475;SDS011;2760;50.000;9.194;2023-04-03T13:11:22;1.70;;;1.60;;
5475;SDS011;2760;50.000;9.194;2023-04-03T13:13:55;3.90;;;2.70;;
5475;SDS011;2760;50.000;9.194;2023-04-03T13:16:23;9.90;;;2.80;;
5475;SDS011;2760;50.000;9.194;2023-04-03T13:18:51;2.60;;;1.60;;
5475;SDS011;2760;50.000;9.194;2023-04-03T13:21:19;3.77;;;2.57;;
5475;SDS011;2760;50.000;9.194;2023-04-03T13:23:50;3.53;;;2.87;;
5475;SDS011;2760;50.000;9.194;2023-04-03T13:26:22;2.10;;;1.90;;
5475;SDS011;2760;50.000;9.194;2023-04-03T13:28:52;2.30;;;2.10;;
5475;SDS011;2760;50.000;9.194;2023-04-03T13:31:22;2.13;;;1.93;;
5475;SDS011;2760;50.000;9.194;2023-04-03T13:33:53;1.90;;;1.70;;
5475;SDS011;2760;50.000;9.194;2023-04-03T13:36:24;3.20;;;2.23;;
5475;SDS011;2760;50.000;9.194;2023-04-03T13:38:59;6.53;;;4.10;;
5475;SDS011;2760;50.000;9.194;2023-04-03T13:41:29;7.23;;;3.60;;
5475;SDS011;2760;50.000;9.194;2023-04-03T13:47:01;5.10;;;2.83;;
5475;SDS011;2760;50.000;9.194;2023-04-03T13:49:43;2.43;;;2.27;;
5475;SDS011;2760;50.000;9.194;2023-04-03T13:52:21;2.50;;;2.27;;
5475;SDS011;2760;50.000;9.194;2023-04-03T13:54:53;5.07;;;2.30;;
5475;SDS011;2760;50.000;9.194;2023-04-03T13:57:23;3.67;;;2.17;;
5475;SDS011;2760;50.000;9.194;2023-04-03T13:59:51;2.20;;;1.90;;
5475;SDS011;2760;50.000;9.194;2023-04-03T14:02:18;2.30;;;1.83;;
5475;SDS011;2760;50.000;9.194;2023-04-03T14:04:50;5.50;;;2.50;;
5475;SDS011;2760;50.000;9.194;2023-04-03T14:07:21;2.33;;;2.03;;
5475;SDS011;2760;50.000;9.194;2023-04-03T14:09:49;10.83;;;2.10;;
5475;SDS011;2760;50.000;9.194;2023-04-03T14:12:18;3.40;;;2.97;;
5475;SDS011;2760;50.000;9.194;2023-04-03T14:14:52;2.77;;;2.40;;
5475;SDS011;2760;50.000;9.194;2023-04-03T14:17:21;7.83;;;2.00;;
5475;SDS011;2760;50.000;9.194;2023-04-03T14:19:49;4.70;;;2.00;;
5475;SDS011;2760;50.000;9.194;2023-04-03T14:22:18;5.30;;;2.00;;
5475;SDS011;2760;50.000;9.194;2023-04-03T14:24:48;10.23;;;3.20;;
5475;SDS011;2760;50.000;9.194;2023-04-03T14:27:19;3.90;;;2.00;;
5475;SDS011;2760;50.000;9.194;2023-04-03T14:29:49;4.40;;;2.83;;
5475;SDS011;2760;50.000;9.194;2023-04-03T14:32:18;4.00;;;2.37;;
5475;SDS011;2760;50.000;9.194;2023-04-03T14:34:47;2.80;;;2.37;;
5475;SDS011;2760;50.000;9.194;2023-04-03T14:37:16;4.23;;;2.53;;
5475;SDS011;2760;50.000;9.194;2023-04-03T14:39:45;3.03;;;2.23;;
5475;SDS011;2760;50.000;9.194;2023-04-03T14:42:13;3.27;;;2.13;;
5475;SDS011;2760;50.000;9.194;2023-04-03T14:44:43;2.70;;;2.10;;
5475;SDS011;2760;50.000;9.194;2023-04-03T14:47:11;3.03;;;2.07;;
5475;SDS011;2760;50.000;9.194;2023-04-03T14:49:39;6.90;;;2.80;;
5475;SDS011;2760;50.000;9.194;2023-04-03T14:52:09;2.83;;;2.43;;
5475;SDS011;2760;50.000;9.194;2023-04-03T14:54:45;4.90;;;2.23;;
5475;SDS011;2760;50.000;9.194;2023-04-03T14:57:12;4.27;;;2.50;;
5475;SDS011;2760;50.000;9.194;2023-04-03T14:59:41;4.30;;;2.20;;
5475;SDS011;2760;50.000;9.194;2023-04-03T15:02:20;5.73;;;3.10;;
5475;SDS011;2760;50.000;9.194;2023-04-03T15:04:52;4.03;;;2.40;;
5475;SDS011;2760;50.000;9.194;2023-04-03T15:07:19;5.33;;;1.90;;
5475;SDS011;2760;50.000;9.194;2023-04-03T15:09:46;3.07;;;2.30;;
5475;SDS011;2760;50.000;9.194;2023-04-03T15:12:13;5.80;;;3.30;;
5475;SDS011;2760;50.000;9.194;2023-04-03T15:14:40;4.00;;;2.53;;
5475;SDS011;2760;50.000;9.194;2023-04-03T15:17:08;2.33;;;1.83;;
5475;SDS011;2760;50.000;9.194;2023-04-03T15:19:42;2.87;;;2.27;;
5475;SDS011;2760;50.000;9.194;2023-04-03T15:22:11;4.80;;;2.30;;
5475;SDS011;2760;50.000;9.194;2023-04-03T15:24:41;6.03;;;1.90;;
5475;SDS011;2760;50.000;9.194;2023-04-03T15:27:08;4.23;;;2.13;;
5475;SDS011;2760;50.000;9.194;2023-04-03T15:29:35;3.17;;;2.30;;
5475;SDS011;2760;50.000;9.194;2023-04-03T15:32:03;2.37;;;1.83;;
5475;SDS011;2760;50.000;9.194;2023-04-03T15:34:30;2.13;;;1.80;;
5475;SDS011;2760;50.000;9.194;2023-04-03T15:36:58;6.23;;;2.23;;
5475;SDS011;2760;50.000;9.194;2023-04-03T15:39:25;1.73;;;1.53;;
5475;SDS011;2760;50.000;9.194;2023-04-03T15:41:53;3.10;;;2.40;;
5475;SDS011;2760;50.000;9.194;2023-04-03T15:44:20;11.00;;;3.27;;
5475;SDS011;2760;50.000;9.194;2023-04-03T15:46:47;3.33;;;1.43;;
5475;SDS011;2760;50.000;9.194;2023-04-03T15:49:16;2.17;;;1.43;;
5475;SDS011;2760;50.000;9.194;2023-04-03T15:51:44;2.40;;;1.60;;
5475;SDS011;2760;50.000;9.194;2023-04-03T15:54:12;2.40;;;1.70;;
5475;SDS011;2760;50.000;9.194;2023-04-03T15:56:39;2.13;;;1.73;;
5475;SDS011;2760;50.000;9.194;2023-04-03T15:59:07;2.03;;;1.70;;
5475;SDS011;2760;50.000;9.194;2023-04-03T16:01:34;2.97;;;1.70;;
5475;SDS011;2760;50.000;9.194;2023-04-03T16:04:01;2.57;;;2.30;;